createdAt,value
2016-06-15T00:00:25.112Z,0
2016-06-15T00:01:25.178Z,0
2016-06-15T00:02:24.947Z,0
2016-06-15T00:03:25.122Z,0
2016-06-15T00:04:25.312Z,0
2016-06-15T00:05:25.565Z,0
2016-06-15T00:06:25.193Z,0
2016-06-15T00:07:25.134Z,0
2016-06-15T00:08:25.121Z,0
2016-06-15T00:09:24.937Z,0
2016-06-15T00:10:25.113Z,0
2016-06-15T00:11:25.240Z,0
2016-06-15T00:12:25.119Z,0
2016-06-15T00:13:25.136Z,0
2016-06-15T00:14:25.140Z,0
2016-06-15T00:15:25.159Z,0
2016-06-15T00:16:25.271Z,0
2016-06-15T00:17:25.149Z,0
2016-06-15T00:18:25.121Z,0
2016-06-15T00:19:26.624Z,0
2016-06-15T00:20:25.315Z,0
2016-06-15T00:21:25.240Z,0
2016-06-15T00:22:25.117Z,0
2016-06-15T00:23:25.168Z,0
2016-06-15T00:24:25.155Z,0
2016-06-15T00:25:25.143Z,0
2016-06-15T00:26:25.223Z,0
2016-06-15T00:27:25.149Z,0
2016-06-15T00:28:25.151Z,0
2016-06-15T00:29:25.155Z,0
2016-06-15T00:30:25.157Z,0
2016-06-15T00:31:25.302Z,0
2016-06-15T00:32:24.977Z,0
2016-06-15T00:33:25.167Z,0
2016-06-15T00:34:25.639Z,0
2016-06-15T00:35:25.173Z,0
2016-06-15T00:36:25.271Z,0
2016-06-15T00:37:25.148Z,0
2016-06-15T00:38:25.166Z,0
2016-06-15T00:39:25.170Z,0
2016-06-15T00:40:25.189Z,0
2016-06-15T00:41:25.066Z,0
2016-06-15T00:42:25.164Z,0
2016-06-15T00:43:25.151Z,0
2016-06-15T00:44:25.170Z,0
2016-06-15T00:45:25.157Z,0
2016-06-15T00:46:25.207Z,0
2016-06-15T00:47:25.179Z,0
2016-06-15T00:48:25.166Z,0
2016-06-15T00:49:25.169Z,0
2016-06-15T00:50:25.688Z,0
2016-06-15T00:51:25.286Z,0
2016-06-15T00:52:25.163Z,0
2016-06-15T00:53:25.182Z,0
2016-06-15T00:54:25.170Z,0
2016-06-15T00:55:25.188Z,0
2016-06-15T00:56:25.301Z,0
2016-06-15T00:57:25.194Z,0
2016-06-15T00:58:25.244Z,0
2016-06-15T00:59:25.267Z,0
2016-06-15T01:00:25.276Z,0
2016-06-15T01:01:25.440Z,0
2016-06-15T01:02:25.370Z,0
2016-06-15T01:03:25.391Z,0
2016-06-15T01:04:25.391Z,0
2016-06-15T01:05:25.469Z,0
2016-06-15T01:06:25.548Z,0
2016-06-15T01:07:25.283Z,0
2016-06-15T01:08:25.464Z,0
2016-06-15T01:09:25.441Z,0
2016-06-15T01:10:25.480Z,0
2016-06-15T01:11:25.535Z,0
2016-06-15T01:12:25.496Z,0
2016-06-15T01:13:25.486Z,0
2016-06-15T01:14:25.474Z,0
2016-06-15T01:15:25.323Z,0
2016-06-15T01:16:25.594Z,0
2016-06-15T01:17:25.488Z,0
2016-06-15T01:18:25.525Z,0
2016-06-15T01:19:25.481Z,0
2016-06-15T01:20:25.907Z,0
2016-06-15T01:21:25.598Z,0
2016-06-15T01:22:25.508Z,0
2016-06-15T01:23:25.511Z,0
2016-06-15T01:24:25.530Z,0
2016-06-15T01:25:25.502Z,0
2016-06-15T01:26:25.630Z,0
2016-06-15T01:27:25.509Z,0
2016-06-15T01:28:25.526Z,0
2016-06-15T01:29:25.499Z,0
2016-06-15T01:30:25.501Z,0
2016-06-15T01:31:25.536Z,0
2016-06-15T01:32:25.523Z,0
2016-06-15T01:33:25.511Z,0
2016-06-15T01:34:25.529Z,0
2016-06-15T01:35:25.533Z,0
2016-06-15T01:36:25.675Z,0
2016-06-15T01:37:25.554Z,0
2016-06-15T01:38:25.542Z,0
2016-06-15T01:39:25.513Z,0
2016-06-15T01:40:25.532Z,0
2016-06-15T01:41:25.660Z,0
2016-06-15T01:42:25.522Z,0
2016-06-15T01:43:25.541Z,0
2016-06-15T01:44:25.545Z,0
2016-06-15T01:45:25.516Z,0
2016-06-15T01:46:25.550Z,0
2016-06-15T01:47:25.506Z,0
2016-06-15T01:48:25.541Z,0
2016-06-15T01:49:25.560Z,0
2016-06-15T01:50:25.376Z,0
2016-06-15T01:51:25.691Z,0
2016-06-15T01:52:25.538Z,0
2016-06-15T01:53:25.572Z,0
2016-06-15T01:54:25.544Z,0
2016-06-15T01:55:25.562Z,0
2016-06-15T01:56:25.628Z,0
2016-06-15T01:57:25.584Z,0
2016-06-15T01:58:25.571Z,0
2016-06-15T01:59:25.560Z,0
2016-06-15T02:00:25.578Z,0
2016-06-15T02:01:25.660Z,0
2016-06-15T02:02:25.413Z,0
2016-06-15T02:03:25.556Z,0
2016-06-15T02:04:25.590Z,0
2016-06-15T02:05:25.750Z,0
2016-06-15T02:06:25.706Z,0
2016-06-15T02:07:25.584Z,0
2016-06-15T02:08:25.571Z,0
2016-06-15T02:09:25.574Z,0
2016-06-15T02:10:25.562Z,0
2016-06-15T02:11:25.737Z,0
2016-06-15T02:12:25.600Z,0
2016-06-15T02:13:25.572Z,0
2016-06-15T02:14:25.575Z,0
2016-06-15T02:15:25.578Z,0
2016-06-15T02:16:25.690Z,0
2016-06-15T02:17:25.568Z,0
2016-06-15T02:18:25.602Z,0
2016-06-15T02:19:25.574Z,0
2016-06-15T02:20:25.327Z,0
2016-06-15T02:21:25.705Z,0
2016-06-15T02:22:25.600Z,0
2016-06-15T02:23:25.617Z,0
2016-06-15T02:24:25.574Z,0
2016-06-15T02:25:25.608Z,0
2016-06-15T02:26:25.579Z,0
2016-06-15T02:27:25.567Z,0
2016-06-15T02:28:25.618Z,0
2016-06-15T02:29:25.588Z,0
2016-06-15T02:30:25.592Z,0
2016-06-15T02:31:25.547Z,0
2016-06-15T02:32:25.598Z,0
2016-06-15T02:33:25.617Z,0
2016-06-15T02:34:25.604Z,0
2016-06-15T02:35:25.420Z,4
2016-06-15T02:36:25.610Z,4
2016-06-15T02:37:25.613Z,4
2016-06-15T02:38:25.616Z,4
2016-06-15T02:39:25.635Z,4
2016-06-15T02:40:25.607Z,4
2016-06-15T02:41:25.736Z,0
2016-06-15T02:42:25.628Z,4
2016-06-15T02:43:25.632Z,4
2016-06-15T02:44:25.635Z,4
2016-06-15T02:45:25.623Z,8
2016-06-15T02:46:25.548Z,4
2016-06-15T02:47:25.457Z,4
2016-06-15T02:48:25.647Z,8
2016-06-15T02:49:25.447Z,8
2016-06-15T02:50:25.639Z,8
2016-06-15T02:51:25.781Z,8
2016-06-15T02:52:25.613Z,12
2016-06-15T02:53:25.647Z,12
2016-06-15T02:54:25.619Z,12
2016-06-15T02:55:25.638Z,12
2016-06-15T02:56:25.782Z,16
2016-06-15T02:57:25.612Z,16
2016-06-15T02:58:25.647Z,20
2016-06-15T02:59:25.618Z,20
2016-06-15T03:00:25.637Z,24
2016-06-15T03:01:25.765Z,24
2016-06-15T03:02:25.629Z,28
2016-06-15T03:03:25.646Z,32
2016-06-15T03:04:25.649Z,36
2016-06-15T03:05:26.043Z,44
2016-06-15T03:06:26.563Z,52
2016-06-15T03:07:25.644Z,56
2016-06-15T03:08:25.647Z,64
2016-06-15T03:09:25.650Z,72
2016-06-15T03:10:25.667Z,80
2016-06-15T03:11:25.781Z,92
2016-06-15T03:12:25.659Z,96
2016-06-15T03:13:25.662Z,112
2016-06-15T03:14:25.634Z,120
2016-06-15T03:15:25.668Z,132
2016-06-15T03:16:25.858Z,144
2016-06-15T03:17:25.659Z,148
2016-06-15T03:18:25.661Z,164
2016-06-15T03:19:25.664Z,172
2016-06-15T03:20:25.808Z,184
2016-06-15T03:21:26.139Z,196
2016-06-15T03:22:25.642Z,204
2016-06-15T03:23:25.646Z,208
2016-06-15T03:24:25.679Z,216
2016-06-15T03:25:25.668Z,224
2016-06-15T03:26:25.858Z,236
2016-06-15T03:27:25.502Z,252
2016-06-15T03:28:25.677Z,264
2016-06-15T03:29:25.664Z,284
2016-06-15T03:30:25.714Z,304
2016-06-15T03:31:25.811Z,320
2016-06-15T03:32:25.673Z,336
2016-06-15T03:33:25.676Z,356
2016-06-15T03:34:25.680Z,388
2016-06-15T03:35:25.869Z,412
2016-06-15T03:36:25.686Z,436
2016-06-15T03:37:25.689Z,452
2016-06-15T03:38:25.708Z,468
2016-06-15T03:39:25.679Z,476
2016-06-15T03:40:25.698Z,480
2016-06-15T03:41:25.826Z,488
2016-06-15T03:42:25.688Z,512
2016-06-15T03:43:25.691Z,532
2016-06-15T03:44:25.663Z,572
2016-06-15T03:45:25.667Z,608
2016-06-15T03:46:25.857Z,648
2016-06-15T03:47:25.673Z,692
2016-06-15T03:48:25.691Z,728
2016-06-15T03:49:25.679Z,736
2016-06-15T03:50:25.525Z,744
2016-06-15T03:51:25.982Z,764
2016-06-15T03:52:25.687Z,768
2016-06-15T03:53:25.722Z,772
2016-06-15T03:54:25.709Z,788
2016-06-15T03:55:25.697Z,824
2016-06-15T03:56:25.888Z,888
2016-06-15T03:57:25.656Z,972
2016-06-15T03:58:25.738Z,1048
2016-06-15T03:59:25.709Z,1088
2016-06-15T04:00:25.681Z,1196
2016-06-15T04:01:25.825Z,1376
2016-06-15T04:02:25.702Z,1308
2016-06-15T04:03:25.722Z,1912
2016-06-15T04:04:25.693Z,2840
2016-06-15T04:05:26.681Z,2776
2016-06-15T04:06:26.950Z,1748
2016-06-15T04:07:25.703Z,1700
2016-06-15T04:08:25.737Z,2736
2016-06-15T04:09:25.693Z,5016
2016-06-15T04:10:25.696Z,5516
2016-06-15T04:11:25.855Z,5372
2016-06-15T04:12:25.687Z,3132
2016-06-15T04:13:25.736Z,2244
2016-06-15T04:14:25.693Z,2348
2016-06-15T04:15:25.728Z,2448
2016-06-15T04:16:25.886Z,2748
2016-06-15T04:17:25.578Z,2640
2016-06-15T04:18:25.706Z,2788
2016-06-15T04:19:25.709Z,2980
2016-06-15T04:20:25.727Z,3136
2016-06-15T04:21:26.121Z,3656
2016-06-15T04:22:25.733Z,3516
2016-06-15T04:23:25.721Z,3844
2016-06-15T04:24:25.725Z,4200
2016-06-15T04:25:25.742Z,5836
2016-06-15T04:26:25.871Z,6104
2016-06-15T04:27:25.561Z,4988
2016-06-15T04:28:25.768Z,5216
2016-06-15T04:29:25.755Z,5704
2016-06-15T04:30:25.711Z,5936
2016-06-15T04:31:25.761Z,7156
2016-06-15T04:32:25.717Z,5392
2016-06-15T04:33:25.736Z,4708
2016-06-15T04:34:25.739Z,4924
2016-06-15T04:35:25.742Z,8460
2016-06-15T04:36:26.354Z,6824
2016-06-15T04:37:25.748Z,3984
2016-06-15T04:38:25.751Z,4124
2016-06-15T04:39:25.738Z,5432
2016-06-15T04:40:25.789Z,5272
2016-06-15T04:41:25.885Z,5488
2016-06-15T04:42:25.732Z,5816
2016-06-15T04:43:25.766Z,5868
2016-06-15T04:44:25.581Z,3228
2016-06-15T04:45:25.756Z,2676
2016-06-15T04:46:25.917Z,1908
2016-06-15T04:47:25.778Z,1752
2016-06-15T04:48:25.782Z,1644
2016-06-15T04:49:25.785Z,1556
2016-06-15T04:50:25.788Z,1448
2016-06-15T04:51:26.103Z,1304
2016-06-15T04:52:25.794Z,1184
2016-06-15T04:53:25.766Z,1096
2016-06-15T04:54:25.784Z,1028
2016-06-15T04:55:25.803Z,964
2016-06-15T04:56:25.915Z,900
2016-06-15T04:57:25.810Z,848
2016-06-15T04:58:25.828Z,820
2016-06-15T04:59:25.847Z,812
2016-06-15T05:00:25.834Z,848
2016-06-15T05:01:25.947Z,944
2016-06-15T05:02:25.841Z,1088
2016-06-15T05:03:25.828Z,1164
2016-06-15T05:04:25.815Z,1180
2016-06-15T05:05:25.865Z,1160
2016-06-15T05:06:25.868Z,1136
2016-06-15T05:07:25.840Z,1100
2016-06-15T05:08:25.828Z,1040
2016-06-15T05:09:25.815Z,1008
2016-06-15T05:10:25.803Z,1012
2016-06-15T05:11:26.008Z,1048
2016-06-15T05:12:25.840Z,1084
2016-06-15T05:13:25.859Z,1076
2016-06-15T05:14:25.612Z,1016
2016-06-15T05:15:25.865Z,936
2016-06-15T05:16:25.993Z,840
2016-06-15T05:17:25.840Z,792
2016-06-15T05:18:25.858Z,756
2016-06-15T05:19:25.847Z,724
2016-06-15T05:20:25.880Z,736
2016-06-15T05:21:26.415Z,764
2016-06-15T05:22:25.855Z,804
2016-06-15T05:23:25.874Z,856
2016-06-15T05:24:25.876Z,936
2016-06-15T05:25:25.849Z,1044
2016-06-15T05:26:26.023Z,1140
2016-06-15T05:27:25.871Z,1232
2016-06-15T05:28:25.874Z,1336
2016-06-15T05:29:25.908Z,1436
2016-06-15T05:30:25.880Z,1484
2016-06-15T05:31:26.055Z,1528
2016-06-15T05:32:25.854Z,1596
2016-06-15T05:33:25.889Z,1688
2016-06-15T05:34:25.876Z,1820
2016-06-15T05:35:25.896Z,1948
2016-06-15T05:36:26.304Z,2072
2016-06-15T05:37:25.885Z,2220
2016-06-15T05:38:25.716Z,2384
2016-06-15T05:39:25.875Z,2500
2016-06-15T05:40:25.863Z,2636
2016-06-15T05:41:26.007Z,2752
2016-06-15T05:42:25.885Z,2848
2016-06-15T05:43:25.887Z,2952
2016-06-15T05:44:25.876Z,3012
2016-06-15T05:45:25.879Z,2952
2016-06-15T05:46:26.039Z,2808
2016-06-15T05:47:25.900Z,2648
2016-06-15T05:48:25.920Z,2512
2016-06-15T05:49:25.922Z,2372
2016-06-15T05:50:25.925Z,2236
2016-06-15T05:51:25.741Z,2120
2016-06-15T05:52:25.916Z,1992
2016-06-15T05:53:25.918Z,1864
2016-06-15T05:54:25.891Z,1724
2016-06-15T05:55:25.893Z,1612
2016-06-15T05:56:26.069Z,1596
2016-06-15T05:57:25.916Z,1668
2016-06-15T05:58:25.934Z,1752
2016-06-15T05:59:25.937Z,1852
2016-06-15T06:00:25.909Z,2028
2016-06-15T06:01:26.022Z,2180
2016-06-15T06:02:25.932Z,2300
2016-06-15T06:03:25.918Z,2368
2016-06-15T06:04:25.907Z,2424
2016-06-15T06:05:25.909Z,2356
2016-06-15T06:06:27.130Z,2268
2016-06-15T06:07:25.900Z,2272
2016-06-15T06:08:25.934Z,2352
2016-06-15T06:09:25.921Z,2588
2016-06-15T06:10:25.971Z,2888
2016-06-15T06:11:26.131Z,3076
2016-06-15T06:12:25.931Z,3240
2016-06-15T06:13:25.950Z,3432
2016-06-15T06:14:25.937Z,3472
2016-06-15T06:15:25.972Z,3372
2016-06-15T06:16:26.130Z,3432
2016-06-15T06:17:25.962Z,3788
2016-06-15T06:18:25.949Z,4180
2016-06-15T06:19:25.953Z,4604
2016-06-15T06:20:25.971Z,5112
2016-06-15T06:21:26.162Z,5728
2016-06-15T06:22:25.946Z,6404
2016-06-15T06:23:25.980Z,6784
2016-06-15T06:24:25.936Z,6560
2016-06-15T06:25:25.986Z,6104
2016-06-15T06:26:26.083Z,5564
2016-06-15T06:27:25.992Z,5120
2016-06-15T06:28:25.964Z,4972
2016-06-15T06:29:25.999Z,5076
2016-06-15T06:30:25.970Z,5216
2016-06-15T06:31:26.021Z,5468
2016-06-15T06:32:25.960Z,5756
2016-06-15T06:33:25.996Z,5860
2016-06-15T06:34:25.967Z,5880
2016-06-15T06:35:25.986Z,5684
2016-06-15T06:36:26.926Z,5560
2016-06-15T06:37:25.975Z,5520
2016-06-15T06:38:25.995Z,5676
2016-06-15T06:39:26.014Z,6128
2016-06-15T06:40:25.970Z,6516
2016-06-15T06:41:26.145Z,6564
2016-06-15T06:42:25.882Z,6284
2016-06-15T06:43:26.354Z,5824
2016-06-15T06:44:26.950Z,5564
2016-06-15T06:45:26.001Z,5204
2016-06-15T06:46:26.097Z,4784
2016-06-15T06:47:26.039Z,4368
2016-06-15T06:48:26.025Z,4092
2016-06-15T06:49:26.029Z,3992
2016-06-15T06:50:26.016Z,3932
2016-06-15T06:51:26.082Z,3816
2016-06-15T06:52:26.022Z,3700
2016-06-15T06:53:26.041Z,3648
2016-06-15T06:54:26.013Z,3676
2016-06-15T06:55:26.017Z,3668
2016-06-15T06:56:26.191Z,3560
2016-06-15T06:57:26.038Z,3532
2016-06-15T06:58:26.103Z,3612
2016-06-15T06:59:26.029Z,3884
2016-06-15T07:00:26.047Z,4456
2016-06-15T07:01:26.082Z,5256
2016-06-15T07:02:26.022Z,6048
2016-06-15T07:03:26.072Z,6744
2016-06-15T07:04:26.075Z,7240
2016-06-15T07:05:26.078Z,7296
2016-06-15T07:06:26.050Z,6476
2016-06-15T07:07:26.068Z,5540
2016-06-15T07:08:26.071Z,5036
2016-06-15T07:09:26.090Z,4636
2016-06-15T07:10:26.093Z,4472
2016-06-15T07:11:26.081Z,4532
2016-06-15T07:12:26.083Z,4480
2016-06-15T07:13:26.103Z,3884
2016-06-15T07:14:26.089Z,3324
2016-06-15T07:15:26.109Z,3224
2016-06-15T07:16:26.253Z,3804
2016-06-15T07:17:26.084Z,4548
2016-06-15T07:18:25.962Z,4884
2016-06-15T07:19:26.105Z,4812
2016-06-15T07:20:26.124Z,4760
2016-06-15T07:21:26.269Z,4968
2016-06-15T07:22:25.974Z,5168
2016-06-15T07:23:26.133Z,5088
2016-06-15T07:24:26.120Z,4748
2016-06-15T07:25:25.952Z,4248
2016-06-15T07:26:26.267Z,3740
2016-06-15T07:27:26.115Z,3500
2016-06-15T07:28:26.118Z,3644
2016-06-15T07:29:26.152Z,4148
2016-06-15T07:30:26.374Z,4872
2016-06-15T07:31:26.330Z,5496
2016-06-15T07:32:26.130Z,5720
2016-06-15T07:33:26.164Z,5788
2016-06-15T07:34:26.151Z,6048
2016-06-15T07:35:26.139Z,6324
2016-06-15T07:36:26.564Z,6424
2016-06-15T07:37:26.285Z,6264
2016-06-15T07:38:26.148Z,6224
2016-06-15T07:39:26.182Z,6316
2016-06-15T07:40:26.186Z,6460
2016-06-15T07:41:26.361Z,6676
2016-06-15T07:42:26.175Z,6944
2016-06-15T07:43:26.179Z,7152
2016-06-15T07:44:26.167Z,7084
2016-06-15T07:45:26.201Z,6844
2016-06-15T07:46:26.376Z,6724
2016-06-15T07:47:26.176Z,6532
2016-06-15T07:48:26.194Z,6304
2016-06-15T07:49:26.197Z,6236
2016-06-15T07:50:26.216Z,6208
2016-06-15T07:51:26.719Z,6320
2016-06-15T07:52:26.442Z,6484
2016-06-15T07:53:26.209Z,6336
2016-06-15T07:54:26.212Z,6008
2016-06-15T07:55:26.216Z,5740
2016-06-15T07:56:26.297Z,5692
2016-06-15T07:57:26.207Z,5644
2016-06-15T07:58:26.256Z,5560
2016-06-15T07:59:26.088Z,5620
2016-06-15T08:00:26.231Z,5724
2016-06-15T08:01:26.250Z,5784
2016-06-15T08:02:26.237Z,5748
2016-06-15T08:03:26.225Z,5404
2016-06-15T08:04:26.243Z,4860
2016-06-15T08:05:26.246Z,4316
2016-06-15T08:06:26.844Z,3840
2016-06-15T08:07:26.534Z,3468
2016-06-15T08:08:26.256Z,3156
2016-06-15T08:09:26.244Z,2900
2016-06-15T08:10:26.293Z,2644
2016-06-15T08:11:26.390Z,2440
2016-06-15T08:12:26.252Z,2296
2016-06-15T08:13:26.287Z,2212
2016-06-15T08:14:26.243Z,2224
2016-06-15T08:15:26.324Z,2280
2016-06-15T08:16:26.391Z,2332
2016-06-15T08:17:26.268Z,2368
2016-06-15T08:18:26.302Z,2456
2016-06-15T08:19:26.305Z,2644
2016-06-15T08:20:26.277Z,2932
2016-06-15T08:21:27.796Z,3268
2016-06-15T08:22:26.330Z,3540
2016-06-15T08:23:26.037Z,3708
2016-06-15T08:24:27.196Z,3780
2016-06-15T08:25:26.293Z,3900
2016-06-15T08:26:26.296Z,3996
2016-06-15T08:27:26.330Z,4092
2016-06-15T08:28:26.317Z,4256
2016-06-15T08:29:26.305Z,4452
2016-06-15T08:30:26.073Z,4664
2016-06-15T08:31:26.467Z,4824
2016-06-15T08:32:26.299Z,4892
2016-06-15T08:33:26.301Z,4912
2016-06-15T08:34:26.336Z,4956
2016-06-15T08:35:26.324Z,4972
2016-06-15T08:36:26.342Z,4980
2016-06-15T08:37:26.361Z,5004
2016-06-15T08:38:26.332Z,5020
2016-06-15T08:39:26.023Z,5076
2016-06-15T08:40:26.339Z,5216
2016-06-15T08:41:26.514Z,5328
2016-06-15T08:42:26.345Z,5384
2016-06-15T08:43:26.348Z,5380
2016-06-15T08:44:26.319Z,5280
2016-06-15T08:45:26.355Z,5232
2016-06-15T08:46:26.404Z,5200
2016-06-15T08:47:26.361Z,5140
2016-06-15T08:48:26.363Z,5084
2016-06-15T08:49:26.397Z,5060
2016-06-15T08:50:26.245Z,5060
2016-06-15T08:51:27.606Z,5032
2016-06-15T08:52:26.219Z,4992
2016-06-15T08:53:26.425Z,4952
2016-06-15T08:54:26.382Z,4976
2016-06-15T08:55:26.385Z,5080
2016-06-15T08:56:26.372Z,5192
2016-06-15T08:57:26.391Z,5192
2016-06-15T08:58:26.362Z,5152
2016-06-15T08:59:26.397Z,5088
2016-06-15T09:00:30.931Z,5036
2016-06-15T09:01:33.888Z,4964
2016-06-15T09:02:26.391Z,4832
2016-06-15T09:03:26.394Z,4624
2016-06-15T09:04:26.397Z,4464
2016-06-15T09:05:26.416Z,4380
2016-06-15T09:06:26.559Z,4376
2016-06-15T09:07:26.547Z,4396
2016-06-15T09:08:26.441Z,4404
2016-06-15T09:09:26.428Z,4400
2016-06-15T09:10:26.462Z,4420
2016-06-15T09:11:26.622Z,4444
2016-06-15T09:12:26.296Z,4508
2016-06-15T09:13:37.753Z,4660
2016-06-15T09:14:26.419Z,4820
2016-06-15T09:15:26.420Z,5040
2016-06-15T09:16:26.549Z,5204
2016-06-15T09:17:26.443Z,5376
2016-06-15T09:18:26.447Z,5504
2016-06-15T09:19:26.449Z,5596
2016-06-15T09:20:26.483Z,5680
2016-06-15T09:21:26.628Z,5712
2016-06-15T09:22:27.317Z,5728
2016-06-15T09:23:26.446Z,5744
2016-06-15T09:24:26.464Z,5804
2016-06-15T09:25:26.452Z,5908
2016-06-15T09:26:26.642Z,6048
2016-06-15T09:27:26.458Z,6220
2016-06-15T09:28:26.461Z,6368
2016-06-15T09:29:26.474Z,6612
2016-06-15T09:30:26.477Z,6860
2016-06-15T09:31:26.480Z,7120
2016-06-15T09:32:26.468Z,7388
2016-06-15T09:33:26.471Z,7696
2016-06-15T09:34:26.473Z,7952
2016-06-15T09:35:26.509Z,8108
2016-06-15T09:36:26.668Z,8172
2016-06-15T09:37:27.357Z,8096
2016-06-15T09:38:26.501Z,8000
2016-06-15T09:39:26.504Z,7872
2016-06-15T09:40:26.352Z,7708
2016-06-15T09:41:26.699Z,7556
2016-06-15T09:42:26.530Z,7412
2016-06-15T09:43:26.501Z,7272
2016-06-15T09:44:26.504Z,7220
2016-06-15T09:45:26.540Z,7216
2016-06-15T09:46:26.667Z,7044
2016-06-15T09:47:26.529Z,6728
2016-06-15T09:48:26.548Z,6368
2016-06-15T09:49:26.255Z,6080
2016-06-15T09:50:26.429Z,5940
2016-06-15T09:51:26.542Z,5888
2016-06-15T09:52:26.983Z,5912
2016-06-15T09:53:27.267Z,5896
2016-06-15T09:54:26.581Z,5780
2016-06-15T09:55:26.570Z,5656
2016-06-15T09:56:26.557Z,5448
2016-06-15T09:57:26.560Z,5236
2016-06-15T09:58:26.547Z,5156
2016-06-15T09:59:26.583Z,5172
2016-06-15T10:00:26.585Z,5244
2016-06-15T10:01:26.744Z,5296
2016-06-15T10:02:26.559Z,5212
2016-06-15T10:03:26.578Z,4996
2016-06-15T10:04:26.475Z,4796
2016-06-15T10:05:26.627Z,4732
2016-06-15T10:06:26.889Z,4816
2016-06-15T10:07:27.886Z,4992
2016-06-15T10:08:26.772Z,5240
2016-06-15T10:09:26.819Z,5436
2016-06-15T10:10:26.837Z,5536
2016-06-15T10:11:26.915Z,5528
2016-06-15T10:12:26.824Z,5472
2016-06-15T10:13:26.873Z,5396
2016-06-15T10:14:26.902Z,5292
2016-06-15T10:15:26.894Z,5176
2016-06-15T10:16:34.840Z,5096
2016-06-15T10:17:26.895Z,5064
2016-06-15T10:18:28.810Z,5084
2016-06-15T10:19:26.926Z,5136
2016-06-15T10:20:26.900Z,5216
2016-06-15T10:21:27.061Z,5332
2016-06-15T10:22:26.847Z,5536
2016-06-15T10:23:26.946Z,5824
2016-06-15T10:24:26.934Z,6208
2016-06-15T10:25:26.954Z,6608
2016-06-15T10:26:27.005Z,7180
2016-06-15T10:27:26.944Z,7860
2016-06-15T10:28:26.948Z,8624
2016-06-15T10:29:26.984Z,9596
2016-06-15T10:30:26.955Z,10396
2016-06-15T10:31:26.974Z,11116
2016-06-15T10:32:26.994Z,11528
2016-06-15T10:33:26.997Z,11616
2016-06-15T10:34:27.001Z,11548
2016-06-15T10:35:27.379Z,11344
2016-06-15T10:36:43.225Z,11108
2016-06-15T10:38:08.028Z,10820
2016-06-15T10:38:42.419Z,10720
2016-06-15T10:40:00.520Z,10680
2016-06-15T10:40:49.473Z,10728
2016-06-15T10:42:06.088Z,10924
2016-06-15T10:43:01.026Z,11148
2016-06-15T10:43:27.857Z,11224
2016-06-15T10:44:27.860Z,11404
2016-06-15T10:45:36.988Z,11156
2016-06-15T10:47:22.900Z,10780
2016-06-15T10:48:36.606Z,10608
2016-06-15T10:49:38.001Z,10408
2016-06-15T10:50:44.098Z,9496
2016-06-15T10:51:32.366Z,9716
2016-06-15T10:53:01.291Z,9348
2016-06-15T10:54:44.453Z,8764
